createdAt,value
2018-07-11T00:00:49.805Z,3.4
2018-07-11T00:02:50.103Z,3.4
2018-07-11T00:04:49.704Z,3.4
2018-07-11T00:06:50.211Z,3.8
2018-07-11T00:08:50.496Z,3.5
2018-07-11T00:10:49.881Z,3.4
2018-07-11T00:12:50.149Z,3.4
2018-07-11T00:14:50.388Z,3.7
2018-07-11T00:16:49.939Z,3.5
2018-07-11T00:18:50.243Z,3.8
2018-07-11T00:20:50.506Z,3.8
2018-07-11T00:22:49.780Z,3.4
2018-07-11T00:24:50.059Z,3.7
2018-07-11T00:26:49.616Z,4.3
2018-07-11T00:28:50.105Z,3.8
2018-07-11T00:30:50.396Z,4.1
2018-07-11T00:32:49.640Z,4.1
2018-07-11T00:34:50.213Z,4.1
2018-07-11T00:36:49.633Z,4.1
2018-07-11T00:38:50.069Z,4.4
2018-07-11T00:40:50.384Z,4.4
2018-07-11T00:42:49.636Z,4.4
2018-07-11T00:44:49.879Z,4.4
2018-07-11T00:46:50.379Z,4.4
2018-07-11T00:48:49.758Z,4.2
2018-07-11T00:50:49.966Z,4.2
2018-07-11T00:52:50.246Z,4.2
2018-07-11T00:54:50.468Z,4.5
2018-07-11T00:56:49.979Z,4.5
2018-07-11T00:58:50.378Z,4.5
2018-07-11T01:00:49.666Z,4.6
2018-07-11T01:02:49.926Z,4.6
2018-07-11T01:04:50.468Z,4.8
2018-07-11T01:06:49.974Z,4.6
2018-07-11T01:08:50.458Z,4.4
2018-07-11T01:10:49.745Z,4.4
2018-07-11T01:12:50.249Z,4.5
2018-07-11T01:14:49.538Z,5.0
2018-07-11T01:16:50.039Z,5.0
2018-07-11T01:18:50.334Z,5.1
2018-07-11T01:20:49.690Z,5.1
2018-07-11T01:22:50.096Z,5.1
2018-07-11T01:24:50.403Z,4.6
2018-07-11T01:26:49.774Z,4.6
2018-07-11T01:28:50.144Z,4.8
2018-07-11T01:30:50.388Z,4.8
2018-07-11T01:32:49.626Z,4.9
2018-07-11T01:34:50.305Z,4.9
2018-07-11T01:36:49.735Z,4.9
2018-07-11T01:38:50.096Z,4.9
2018-07-11T01:40:50.385Z,4.9
2018-07-11T01:50:50.090Z,5.3
2018-07-11T01:52:50.311Z,4.8
2018-07-11T01:54:49.874Z,4.8
2018-07-11T01:56:50.488Z,5.2
2018-07-11T01:58:49.815Z,5.2
2018-07-11T02:00:50.026Z,5.3
2018-07-11T02:02:50.345Z,6.2
2018-07-11T02:04:49.853Z,6.2
2018-07-11T02:06:50.292Z,6.9
2018-07-11T02:08:50.331Z,6.9
2018-07-11T02:10:49.604Z,6.7
2018-07-11T02:12:49.973Z,7.0
2018-07-11T02:14:50.269Z,7.4
2018-07-11T02:16:49.651Z,7.6
2018-07-11T02:18:49.910Z,7.6
2018-07-11T02:20:50.259Z,6.7
2018-07-11T02:22:49.601Z,7.0
2018-07-11T02:24:49.863Z,7.3
2018-07-11T02:26:50.415Z,7.3
2018-07-11T02:28:49.766Z,7.5
2018-07-11T02:30:50.099Z,6.8
2018-07-11T02:32:50.407Z,6.8
2018-07-11T02:34:50.071Z,6.7
2018-07-11T02:36:49.700Z,6.7
2018-07-11T02:38:49.890Z,6.9
2018-07-11T02:40:50.125Z,6.9
2018-07-11T02:42:50.540Z,7.6
2018-07-11T02:44:49.781Z,7.4
2018-07-11T02:46:49.757Z,7.4
2018-07-11T02:48:50.127Z,7.5
2018-07-11T02:50:50.354Z,7.2
2018-07-11T02:52:49.609Z,7.6
2018-07-11T02:54:49.924Z,7.5
2018-07-11T02:56:50.499Z,7.5
2018-07-11T02:58:49.829Z,7.9
2018-07-11T03:00:50.201Z,8.2
2018-07-11T03:02:49.543Z,8.5
2018-07-11T03:04:50.251Z,8.5
2018-07-11T03:06:49.604Z,9.4
2018-07-11T03:08:49.912Z,9.2
2018-07-11T03:10:50.287Z,9.3
2018-07-11T03:12:49.592Z,9.3
2018-07-11T03:14:49.937Z,9.5
2018-07-11T03:16:50.393Z,10.3
2018-07-11T03:18:49.660Z,10.0
2018-07-11T03:20:50.008Z,10.0
2018-07-11T03:22:50.312Z,10.6
2018-07-11T03:24:49.556Z,10.1
2018-07-11T03:26:49.996Z,10.1
2018-07-11T03:28:50.416Z,10.7
2018-07-11T03:30:49.809Z,11.1
2018-07-11T03:32:50.172Z,11.1
2018-07-11T03:34:49.735Z,11.1
2018-07-11T03:36:50.191Z,11.1
2018-07-11T03:38:49.533Z,11.7
2018-07-11T03:40:50.001Z,10.8
2018-07-11T03:42:50.382Z,10.8
2018-07-11T03:44:49.675Z,10.8
2018-07-11T03:46:50.119Z,10.8
2018-07-11T03:48:50.562Z,22.2
2018-07-11T03:50:49.779Z,10.8
2018-07-11T03:52:50.064Z,10.8
2018-07-11T03:54:50.539Z,10.8
2018-07-11T03:56:50.030Z,11.4
2018-07-11T03:58:50.355Z,11.5
2018-07-11T04:00:49.584Z,10.9
2018-07-11T04:02:49.821Z,10.9
2018-07-11T04:04:50.607Z,9.9
2018-07-11T04:06:49.605Z,9.3
2018-07-11T04:08:49.907Z,9.0
2018-07-11T04:10:50.184Z,11.5
2018-07-11T04:12:49.634Z,11.5
2018-07-11T04:14:49.944Z,9.3
2018-07-11T04:16:50.473Z,9.1
2018-07-11T04:18:49.943Z,8.8
2018-07-11T04:20:50.222Z,8.8
2018-07-11T04:22:49.576Z,8.8
2018-07-11T04:24:49.920Z,9.3
2018-07-11T04:26:50.320Z,9.1
2018-07-11T04:28:49.716Z,9.1
2018-07-11T04:30:49.643Z,9.4
2018-07-11T04:32:49.876Z,9.4
2018-07-11T04:34:50.449Z,9.4
2018-07-11T04:36:50.017Z,9.9
2018-07-11T04:38:50.373Z,9.9
2018-07-11T04:40:49.677Z,9.7
2018-07-11T04:42:50.041Z,9.7
2018-07-11T04:44:50.291Z,10.0
2018-07-11T04:46:49.777Z,9.6
2018-07-11T04:48:50.001Z,9.7
2018-07-11T04:50:50.369Z,9.7
2018-07-11T04:52:49.761Z,10.6
2018-07-11T04:54:50.047Z,9.2
2018-07-11T04:56:50.385Z,9.2
2018-07-11T04:58:49.788Z,9.4
2018-07-11T05:00:50.405Z,9.4
2018-07-11T05:02:49.742Z,10.1
2018-07-11T05:04:50.636Z,10.0
2018-07-11T05:06:49.545Z,9.7
2018-07-11T05:08:49.795Z,9.8
2018-07-11T05:10:50.296Z,9.8
2018-07-11T05:12:50.069Z,9.7
2018-07-11T05:14:50.330Z,9.8
2018-07-11T05:16:49.788Z,9.4
2018-07-11T05:18:50.081Z,9.0
2018-07-11T05:20:49.539Z,9.0
2018-07-11T05:22:49.936Z,9.5
2018-07-11T05:24:50.275Z,9.8
2018-07-11T05:26:49.733Z,9.8
2018-07-11T05:28:49.954Z,9.9
2018-07-11T05:30:50.354Z,9.9
2018-07-11T05:32:49.775Z,10.7
2018-07-11T05:34:49.576Z,10.2
2018-07-11T05:36:49.833Z,10.2
2018-07-11T05:38:50.193Z,11.1
2018-07-11T05:40:49.669Z,11.1
2018-07-11T05:42:49.996Z,10.5
2018-07-11T05:44:50.326Z,10.4
2018-07-11T05:46:50.004Z,10.0
2018-07-11T05:48:49.555Z,10.0
2018-07-11T05:50:49.777Z,9.7
2018-07-11T05:52:50.098Z,9.7
2018-07-11T05:54:50.359Z,9.6
2018-07-11T05:56:50.037Z,9.7
2018-07-11T05:58:50.356Z,9.7
2018-07-11T06:00:49.909Z,9.9
2018-07-11T06:02:50.313Z,9.9
2018-07-11T06:04:49.909Z,10.1
2018-07-11T06:06:50.486Z,9.8
2018-07-11T06:08:50.215Z,9.8
2018-07-11T06:10:49.798Z,10.6
2018-07-11T06:12:50.215Z,10.4
2018-07-11T06:14:50.390Z,10.1
2018-07-11T06:16:49.899Z,9.7
2018-07-11T06:18:50.263Z,9.7
2018-07-11T06:20:49.688Z,9.7
2018-07-11T06:22:50.024Z,8.6
2018-07-11T06:24:50.398Z,9.5
2018-07-11T06:26:49.993Z,9.1
2018-07-11T06:28:50.351Z,9.1
2018-07-11T06:30:49.647Z,9.1
2018-07-11T06:32:49.912Z,9.2
2018-07-11T06:34:49.541Z,9.1
2018-07-11T06:36:50.033Z,9.1
2018-07-11T06:38:50.462Z,9.9
2018-07-11T06:40:49.724Z,9.0
2018-07-11T06:42:50.162Z,9.0
2018-07-11T06:44:50.401Z,8.5
2018-07-11T06:46:49.954Z,8.5
2018-07-11T06:48:50.418Z,9.2
2018-07-11T06:50:49.749Z,9.2
2018-07-11T06:52:50.117Z,8.9
2018-07-11T06:54:50.392Z,9.3
2018-07-11T06:56:49.800Z,9.3
2018-07-11T06:58:50.115Z,10.8
2018-07-11T07:00:50.411Z,10.8
2018-07-11T07:02:49.935Z,9.3
2018-07-11T07:04:49.553Z,10.0
2018-07-11T07:06:50.424Z,10.0
2018-07-11T07:08:49.655Z,9.4
2018-07-11T07:10:49.953Z,10.3
2018-07-11T07:12:50.382Z,10.2
2018-07-11T07:14:49.762Z,10.2
2018-07-11T07:16:50.410Z,10.3
2018-07-11T07:18:49.638Z,11.0
2018-07-11T07:20:49.845Z,11.0
2018-07-11T07:22:50.054Z,10.4
2018-07-11T07:24:50.355Z,10.4
2018-07-11T07:26:50.058Z,10.1
2018-07-11T07:28:50.396Z,9.4
2018-07-11T07:30:49.548Z,10.2
2018-07-11T07:32:49.982Z,10.0
2018-07-11T07:34:49.719Z,10.1
2018-07-11T07:36:50.044Z,10.1
2018-07-11T07:38:49.835Z,10.7
2018-07-11T07:40:50.104Z,9.0
2018-07-11T07:42:50.456Z,8.8
2018-07-11T07:44:49.646Z,8.8
2018-07-11T07:46:50.039Z,8.4
2018-07-11T07:48:50.298Z,8.0
2018-07-11T07:50:49.713Z,8.0
2018-07-11T07:52:50.100Z,8.5
2018-07-11T07:54:49.720Z,8.1
2018-07-11T07:56:50.048Z,8.1
2018-07-11T07:58:50.246Z,8.1
2018-07-11T08:00:49.608Z,8.2
2018-07-11T08:02:49.903Z,8.2
2018-07-11T08:04:50.429Z,7.8
2018-07-11T08:06:50.002Z,7.5
2018-07-11T08:08:50.428Z,7.1
2018-07-11T08:10:49.760Z,7.5
2018-07-11T08:12:50.136Z,7.5
2018-07-11T08:14:49.672Z,6.9
2018-07-11T08:16:50.156Z,8.2
2018-07-11T08:18:50.442Z,7.0
2018-07-11T08:20:49.803Z,7.1
